Pencer, Minnesota
Current Conditions -  °F | °C
As of 8:34 PM on Sunday 21 Dec 2014 (Local Time) from KROX Reporting Station
Overcast Overcast  
Wind Chill: 24°   Ceiling: 500
Heat Index: 32°   Visibility: 7mi
Dew Point: 28°   Wind: 9mph
Humidity: 87%   Direction: 140°SE
Pressure: 29.61"   Gusts: NA
Location:  48.7499°N, 95.6399°W
Report Text: KROX 220234Z AUTO 14008KT 7SM OVC005 00/M02 A2961 RMK AO2
Loading
Personal Weather Stations






























Interactive Weather Map New forecast layout! Learn more

10-Day Weather Forecast

Advertisements
Track Severe Weather on mobile